Decoded Metar for UBBG (GYANDZHA in RUSSIA) (IATA:N/A) | Meteo·Mobile Aviation Weather
aviador You're here:

UBBG Decoded Metar

GYANDZHA in RUSSIA
Report Time2019-08-24 15:00:00
UTC Time2019-08-24 15:33:10
Flight Rules vfr VFR
Wind100° at 28 kt
W.Decomp.*RWY 12: 25.6 kt HW 11.4 kt LCW
Visibility9999 m
Phenomena:N/A
Clouds:Scattered 100 Hf
Expected CloudBase > 8,000 ft AGL from Temp-Dew spread
CeilingNone
Temp34°C (ISA +21)
Dew Point14°C (30% RH)
Heat Index33.3°C
AAT25.2°C
QNH1009 hPa
Density Alt3,832 ft
Elevation1,083 ft
Report Wrong Elevation
Raw Report
UBBG 241500Z 10028KT 9999 SCT100 34/14 Q1009 R12/CLRD// NOSIG=

Extra information for UBBG:More info

Metar Taf Metar & Taf Last 4 Metars F.Rules Stats Wind Profile Meteogram Temp Stats Airport Information Weather charts Add Link Nearby VenuesMetar ALERT Operation Metar Decoded Social comments